Time;durP1;ratioP1;P1;durP2;ratioP2;P2;SDS_P1;SDS_P2;PMS_P1;PMS_P2;Temp;Humidity;BMP_temperature;BMP_pressure;BME280_temperature;BME280_humidity;BME280_pressure;Samples;Min_cycle;Max_cycle;Signal;HPM_P1;HPM_P2
2023/10/19 04:01:01;;;;;;;0.60;0.10;;;13.10;1.00;;;;;;5737619;23;20585;-73
2023/10/19 04:03:30;;;;;;;0.57;0.10;;;13.00;1.00;;;;;;4943537;28;20464;-74
2023/10/19 04:06:03;;;;;;;0.60;0.10;;;12.90;1.00;;;;;;4954396;28;20464;-73
2023/10/19 04:08:35;;;;;;;0.60;0.10;;;12.90;1.00;;;;;;4954439;28;21030;-73
2023/10/19 04:11:11;;;;;;;0.60;0.10;;;12.90;1.00;;;;;;4947379;28;20554;-73
2023/10/19 04:13:40;;;;;;;0.60;0.13;;;;;;;;;;5041242;23;21003;-71
2023/10/19 04:16:10;;;;;;;0.60;0.10;;;12.90;1.00;;;;;;4963190;28;20506;-71
2023/10/19 04:18:43;;;;;;;0.60;0.10;;;;;;;;;;4953310;28;20840;-71
2023/10/19 04:21:12;;;;;;;1.00;0.90;;;;;;;;;;4955989;28;20478;-71
2023/10/19 04:23:40;;;;;;;2.40;1.70;;;12.90;1.00;;;;;;4952018;28;21068;-71
2023/10/19 04:26:11;;;;;;;6.67;6.23;;;;;;;;;;4944787;28;20541;-71
2023/10/19 04:28:44;;;;;;;0.50;0.10;;;12.70;1.00;;;;;;4940251;28;20538;-71
2023/10/19 04:31:17;;;;;;;0.50;0.10;;;12.80;1.00;;;;;;4934919;28;20803;-72
2023/10/19 04:33:47;;;;;;;0.50;0.10;;;;;;;;;;4948457;28;20490;-70
2023/10/19 04:36:16;;;;;;;0.50;0.20;;;12.80;1.00;;;;;;4943066;28;20451;-70
2023/10/19 04:38:44;;;;;;;0.60;0.40;;;12.80;1.00;;;;;;4940378;28;20454;-71
2023/10/19 04:41:12;;;;;;;0.53;0.10;;;;;;;;;;4948958;28;20450;-71
2023/10/19 04:43:40;;;;;;;0.53;0.10;;;12.80;1.00;;;;;;4953902;28;20543;-71
2023/10/19 04:46:11;;;;;;;0.60;0.10;;;12.80;1.00;;;;;;4953716;29;20447;-71
2023/10/19 04:48:41;;;;;;;0.50;0.10;;;12.80;1.00;;;;;;4953733;29;20521;-71
2023/10/19 04:51:10;;;;;;;0.53;0.10;;;12.80;1.00;;;;;;4949370;29;20467;-70
2023/10/19 04:53:38;;;;;;;0.50;0.10;;;12.80;1.00;;;;;;4953503;28;20546;-70
2023/10/19 04:56:09;;;;;;;0.50;0.10;;;12.80;1.00;;;;;;4945674;28;20448;-70
2023/10/19 04:58:37;;;;;;;0.50;0.10;;;12.80;1.00;;;;;;4940389;28;20535;-70
2023/10/19 05:01:06;;;;;;;0.60;0.10;;;12.90;1.00;;;;;;4953914;28;20945;-70
2023/10/19 05:03:34;;;;;;;0.50;0.10;;;12.90;1.00;;;;;;4952563;28;20465;-72
2023/10/19 05:06:04;;;;;;;0.50;0.10;;;12.90;1.00;;;;;;4952784;29;20486;-70
2023/10/19 05:08:32;;;;;;;0.53;0.10;;;12.90;1.00;;;;;;4952785;29;20443;-70
2023/10/19 05:11:01;;;;;;;0.57;0.10;;;12.90;1.00;;;;;;4947888;29;20591;-71
2023/10/19 05:13:30;;;;;;;0.50;0.10;;;12.90;1.00;;;;;;4963162;28;20494;-71
2023/10/19 05:15:59;;;;;;;0.57;0.10;;;;;;;;;;4961378;28;20466;-70
2023/10/19 05:18:27;;;;;;;0.60;0.10;;;12.90;1.00;;;;;;4972573;28;20512;-70
2023/10/19 05:20:56;;;;;;;0.60;0.10;;;;;;;;;;4972582;28;20438;-71
2023/10/19 05:23:26;;;;;;;0.60;0.10;;;13.00;1.00;;;;;;4972318;28;20456;-71
2023/10/19 05:26:00;;;;;;;0.50;0.10;;;13.00;1.00;;;;;;4965922;28;20523;-71
2023/10/19 05:28:28;;;;;;;0.60;0.10;;;12.90;1.00;;;;;;4955625;28;20446;-72
2023/10/19 05:30:58;;;;;;;0.50;0.10;;;;;;;;;;4953158;29;20448;-71
2023/10/19 05:33:29;;;;;;;0.70;0.20;;;13.00;1.00;;;;;;4940679;28;20459;-72
2023/10/19 05:35:57;;;;;;;0.60;0.20;;;13.00;1.00;;;;;;4948841;29;20451;-70
2023/10/19 05:38:27;;;;;;;0.57;0.17;;;13.00;1.00;;;;;;4954829;28;20518;-71
2023/10/19 05:40:55;;;;;;;0.60;0.10;;;13.00;1.00;;;;;;4948289;29;20495;-71
2023/10/19 05:43:24;;;;;;;0.60;0.10;;;;;;;;;;4953796;28;20893;-71
2023/10/19 05:45:52;;;;;;;0.60;0.10;;;13.10;1.00;;;;;;4962521;28;20475;-70
2023/10/19 05:48:21;;;;;;;0.60;0.10;;;13.10;1.00;;;;;;4950311;28;20470;-70
2023/10/19 05:50:49;;;;;;;0.50;0.10;;;13.10;1.00;;;;;;4951977;29;20534;-71
2023/10/19 05:53:18;;;;;;;0.60;0.30;;;13.20;1.00;;;;;;4947220;28;20491;-70
2023/10/19 05:55:47;;;;;;;0.60;0.10;;;13.20;1.00;;;;;;4950046;29;20585;-71
2023/10/19 05:58:15;;;;;;;0.60;0.10;;;13.20;1.00;;;;;;4962391;28;20451;-70
2023/10/19 06:00:44;;;;;;;2.93;2.73;;;;;;;;;;4961514;28;20459;-71
2023/10/19 06:03:11;;;;;;;0.60;0.10;;;13.20;1.00;;;;;;4946331;28;20480;-71
2023/10/19 06:05:39;;;;;;;0.60;0.10;;;13.30;1.00;;;;;;4947701;29;20443;-71
2023/10/19 06:08:08;;;;;;;0.60;0.10;;;13.30;1.00;;;;;;4948372;28;20735;-72
2023/10/19 06:10:39;;;;;;;0.60;0.10;;;;;;;;;;4952285;28;20452;-72
2023/10/19 06:13:09;;;;;;;0.60;0.10;;;13.30;1.00;;;;;;4949309;28;20630;-72
2023/10/19 06:15:38;;;;;;;0.60;0.20;;;13.20;1.00;;;;;;4951127;29;20475;-72
2023/10/19 06:18:06;;;;;;;0.60;0.10;;;13.30;1.00;;;;;;4956401;28;20443;-71
2023/10/19 06:20:35;;;;;;;0.57;0.10;;;;;;;;;;4954442;29;20471;-72
2023/10/19 06:23:05;;;;;;;0.60;0.10;;;13.30;1.00;;;;;;4957121;28;20529;-72
2023/10/19 06:25:35;;;;;;;0.60;0.10;;;13.30;1.00;;;;;;4955333;29;20942;-71
2023/10/19 06:28:03;;;;;;;0.60;0.10;;;13.40;1.00;;;;;;4956081;29;20444;-71
2023/10/19 06:30:33;;;;;;;0.60;0.10;;;13.40;1.00;;;;;;4950450;28;20551;-72
2023/10/19 06:33:02;;;;;;;0.73;0.20;;;13.40;1.00;;;;;;4951818;28;20562;-72
2023/10/19 06:35:32;;;;;;;0.60;0.30;;;13.50;1.00;;;;;;4952151;29;20448;-72
2023/10/19 06:38:03;;;;;;;0.50;0.10;;;13.50;1.00;;;;;;4952301;29;20508;-72
2023/10/19 06:40:32;;;;;;;0.57;0.10;;;13.50;1.00;;;;;;4951754;28;20943;-72
2023/10/19 06:43:02;;;;;;;0.80;0.20;;;;;;;;;;4952007;28;20498;-72
2023/10/19 06:45:30;;;;;;;0.60;0.20;;;13.50;1.00;;;;;;4952447;28;20452;-74
2023/10/19 06:48:00;;;;;;;0.60;0.10;;;13.50;1.00;;;;;;4952474;29;20520;-71
2023/10/19 06:50:29;;;;;;;0.60;0.20;;;13.60;1.00;;;;;;4952261;29;20457;-71
2023/10/19 06:52:56;;;;;;;1.10;0.20;;;13.60;1.00;;;;;;4950457;28;20554;-71
2023/10/19 06:55:25;;;;;;;0.60;0.10;;;13.60;1.00;;;;;;4952896;29;20533;-72
2023/10/19 06:57:55;;;;;;;0.53;0.10;;;13.60;1.00;;;;;;4955358;28;20451;-72
2023/10/19 07:00:26;;;;;;;0.60;0.20;;;13.60;1.00;;;;;;4955813;29;20810;-72
2023/10/19 07:02:56;;;;;;;1.07;0.20;;;13.50;1.00;;;;;;4954311;28;20446;-72
2023/10/19 07:05:25;;;;;;;0.60;0.10;;;13.60;1.00;;;;;;4954608;29;20451;-72
2023/10/19 07:07:54;;;;;;;0.60;0.10;;;13.50;1.00;;;;;;4949501;28;20518;-72
2023/10/19 07:10:23;;;;;;;0.50;0.10;;;13.50;1.00;;;;;;4952238;29;20475;-72
2023/10/19 07:12:53;;;;;;;0.60;0.10;;;13.50;1.00;;;;;;4947361;28;20547;-72
2023/10/19 07:15:25;;;;;;;0.60;0.10;;;13.50;1.00;;;;;;4954233;29;20491;-72
2023/10/19 07:17:53;;;;;;;0.60;0.10;;;13.60;1.00;;;;;;4955401;29;20981;-72
2023/10/19 07:20:25;;;;;;;0.60;0.10;;;13.60;1.00;;;;;;4954265;28;20947;-72
2023/10/19 07:22:56;;;;;;;0.80;0.20;;;13.60;1.00;;;;;;4956659;28;20470;-72
2023/10/19 07:25:25;;;;;;;0.60;0.10;;;13.60;1.00;;;;;;4955106;29;20474;-72
2023/10/19 07:27:54;;;;;;;0.83;0.60;;;;;;;;;;4955293;29;20450;-72
2023/10/19 07:30:26;;;;;;;0.60;0.10;;;13.70;1.00;;;;;;4955016;29;20445;-72
2023/10/19 07:32:58;;;;;;;0.73;0.20;;;13.70;1.00;;;;;;4955527;28;20449;-72
2023/10/19 07:35:26;;;;;;;0.50;0.10;;;13.70;1.00;;;;;;4954684;28;20546;-72
2023/10/19 07:37:56;;;;;;;0.50;0.10;;;13.80;1.00;;;;;;4955084;29;21132;-71
2023/10/19 07:40:25;;;;;;;0.60;0.10;;;13.80;1.00;;;;;;4954977;29;20452;-71
2023/10/19 07:42:54;;;;;;;1.07;0.23;;;13.80;1.00;;;;;;4954897;28;20453;-73
2023/10/19 07:45:22;;;;;;;0.60;0.10;;;13.80;1.00;;;;;;4954986;29;20447;-72
2023/10/19 07:47:50;;;;;;;0.50;0.10;;;13.80;1.00;;;;;;4954851;29;20551;-72
2023/10/19 07:50:19;;;;;;;0.60;0.10;;;13.90;1.00;;;;;;4954656;29;20900;-72
2023/10/19 07:52:48;;;;;;;0.80;0.17;;;13.80;1.00;;;;;;4955012;28;20566;-72
2023/10/19 07:55:18;;;;;;;7.00;6.60;;;;;;;;;;4952638;29;21002;-74
2023/10/19 07:57:50;;;;;;;0.60;0.10;;;13.80;1.00;;;;;;4954738;28;20886;-73
2023/10/19 08:00:19;;;;;;;0.63;0.40;;;13.80;1.00;;;;;;4954571;28;20456;-73
2023/10/19 08:02:47;;;;;;;1.43;0.60;;;13.80;1.00;;;;;;4954543;28;21032;-72
2023/10/19 08:05:18;;;;;;;0.70;0.50;;;13.80;1.00;;;;;;4954292;28;20447;-72
2023/10/19 08:07:46;;;;;;;0.70;0.40;;;13.80;1.00;;;;;;4955382;28;20451;-72
2023/10/19 08:10:16;;;;;;;0.53;0.10;;;13.90;1.00;;;;;;4955192;28;20451;-72
2023/10/19 08:12:47;;;;;;;0.60;0.10;;;13.90;1.00;;;;;;4947308;28;20460;-72
2023/10/19 08:15:17;;;;;;;0.60;0.10;;;13.90;1.00;;;;;;4942519;28;21005;-72
2023/10/19 08:17:47;;;;;;;0.60;0.10;;;14.00;1.00;;;;;;4942465;28;20841;-73
2023/10/19 08:20:22;;;;;;;0.60;0.10;;;14.00;1.00;;;;;;4951897;29;20811;-73
2023/10/19 08:22:51;;;;;;;0.60;0.10;;;14.00;1.00;;;;;;4940137;28;20449;-73
2023/10/19 08:25:20;;;;;;;0.60;0.20;;;14.10;1.00;;;;;;4934884;28;20631;-71
2023/10/19 08:27:51;;;;;;;0.60;0.10;;;14.10;1.00;;;;;;4934837;28;20449;-72
2023/10/19 08:30:20;;;;;;;0.60;0.10;;;14.10;1.00;;;;;;4947743;28;20448;-72
2023/10/19 08:32:52;;;;;;;5.50;4.43;;;14.10;1.00;;;;;;4959606;28;20471;-71
2023/10/19 08:35:24;;;;;;;0.60;0.10;;;14.10;1.00;;;;;;4957408;28;20490;-73
2023/10/19 08:37:53;;;;;;;0.60;0.10;;;14.10;1.00;;;;;;4973733;28;20448;-72
2023/10/19 08:40:23;;;;;;;33.10;17.60;;;14.10;1.00;;;;;;4966427;28;20466;-72
2023/10/19 08:42:53;;;;;;;0.60;0.10;;;14.20;1.00;;;;;;4950647;28;20459;-71
2023/10/19 08:45:21;;;;;;;0.60;0.10;;;;;;;;;;4953296;28;20445;-72
2023/10/19 08:47:56;;;;;;;0.60;0.10;;;14.20;1.00;;;;;;4953621;28;20503;-72
2023/10/19 08:50:25;;;;;;;0.60;0.10;;;14.20;1.00;;;;;;4953575;28;20512;-72
2023/10/19 08:52:54;;;;;;;1.17;0.23;;;14.20;1.00;;;;;;4953656;28;20855;-72
2023/10/19 08:55:23;;;;;;;0.60;0.10;;;14.20;1.00;;;;;;4948770;28;20489;-72
2023/10/19 08:58:12;;;;;;;0.60;0.20;;;14.20;1.00;;;;;;4945972;28;20447;-72
2023/10/19 09:00:48;;;;;;;0.60;0.10;;;14.20;1.00;;;;;;4945846;28;20540;-72
2023/10/19 09:03:17;;;;;;;0.60;0.10;;;;;;;;;;4952491;28;20509;-72
2023/10/19 09:05:46;;;;;;;0.60;0.10;;;14.30;1.00;;;;;;4953781;28;20565;-72
2023/10/19 09:08:17;;;;;;;0.60;0.10;;;14.30;1.00;;;;;;4961818;28;20486;-72
2023/10/19 09:10:48;;;;;;;0.60;0.10;;;14.30;1.00;;;;;;4964386;28;20581;-72
2023/10/19 09:13:19;;;;;;;0.60;0.10;;;14.30;1.00;;;;;;4949285;28;20483;-72
2023/10/19 09:15:49;;;;;;;0.60;0.10;;;14.30;1.00;;;;;;4947934;29;20494;-72
2023/10/19 09:18:19;;;;;;;0.60;0.10;;;14.30;1.00;;;;;;4949534;28;20482;-72
2023/10/19 09:20:55;;;;;;;0.60;0.10;;;14.30;1.00;;;;;;4955658;28;20447;-72
2023/10/19 09:23:25;;;;;;;0.60;0.10;;;14.30;1.00;;;;;;4951853;28;20499;-72
2023/10/19 09:25:54;;;;;;;0.60;0.10;;;14.40;1.00;;;;;;4939686;28;20504;-73
2023/10/19 09:28:24;;;;;;;0.60;0.10;;;14.40;1.00;;;;;;4934055;28;20588;-72
2023/10/19 09:30:53;;;;;;;0.60;0.10;;;14.40;1.00;;;;;;4934681;28;20449;-72
2023/10/19 09:33:24;;;;;;;0.60;0.10;;;14.40;1.00;;;;;;4951999;28;20474;-72
2023/10/19 09:35:53;;;;;;;0.60;0.10;;;14.50;1.00;;;;;;4947921;29;20485;-76
2023/10/19 09:38:22;;;;;;;0.60;0.10;;;14.50;1.00;;;;;;4952982;28;20445;-72
2023/10/19 09:40:51;;;;;;;0.60;0.10;;;14.60;1.00;;;;;;4952520;29;20460;-72
2023/10/19 09:43:30;;;;;;;0.60;0.10;;;14.60;1.00;;;;;;4952916;28;20475;-72
2023/10/19 09:46:03;;;;;;;0.60;0.10;;;14.70;1.00;;;;;;4952935;29;20444;-72
2023/10/19 09:48:35;;;;;;;0.60;0.10;;;14.70;1.00;;;;;;4952462;29;20448;-72
2023/10/19 09:51:04;;;;;;;0.60;0.10;;;14.80;1.00;;;;;;4952583;28;20455;-71
2023/10/19 09:53:33;;;;;;;0.60;0.10;;;14.80;1.00;;;;;;4952587;28;20508;-72
2023/10/19 09:56:04;;;;;;;0.60;0.20;;;14.90;1.00;;;;;;4952720;29;20574;-72
2023/10/19 09:58:45;;;;;;;0.60;0.10;;;14.90;1.00;;;;;;4954013;28;20466;-72
2023/10/19 10:01:14;;;;;;;0.60;0.10;;;;;;;;;;4951240;28;20467;-72
2023/10/19 10:03:48;;;;;;;0.60;0.10;;;15.00;1.00;;;;;;4949200;28;20542;-70
2023/10/19 10:06:20;;;;;;;0.60;0.10;;;15.10;1.00;;;;;;4953041;29;20440;-71
2023/10/19 10:08:49;;;;;;;0.60;0.10;;;15.00;1.00;;;;;;4933632;28;20504;-71
2023/10/19 10:11:19;;;;;;;0.60;0.10;;;15.10;1.00;;;;;;4933526;28;20796;-71
2023/10/19 10:13:52;;;;;;;0.60;0.10;;;15.10;1.00;;;;;;4933947;28;20501;-71
2023/10/19 10:16:24;;;;;;;0.60;0.10;;;15.10;1.00;;;;;;4934067;29;20579;-71
2023/10/19 10:18:58;;;;;;;0.60;0.10;;;15.20;1.00;;;;;;4933874;28;20506;-71
2023/10/19 10:21:28;;;;;;;0.60;0.10;;;15.30;1.00;;;;;;4933816;28;20458;-72
2023/10/19 10:23:57;;;;;;;0.60;0.10;;;15.30;1.00;;;;;;4934387;28;20472;-72
2023/10/19 10:26:26;;;;;;;0.60;0.10;;;15.30;1.00;;;;;;4933831;28;21033;-71
2023/10/19 10:29:14;;;;;;;0.60;0.10;;;15.30;1.00;;;;;;4946932;28;20467;-71
2023/10/19 10:31:43;;;;;;;0.60;0.10;;;15.40;1.00;;;;;;4946624;28;20604;-72
2023/10/19 10:34:12;;;;;;;0.60;0.10;;;15.40;1.00;;;;;;4950950;28;20483;-72
2023/10/19 10:37:02;;;;;;;0.60;0.10;;;15.40;1.00;;;;;;4953911;29;20517;-72
2023/10/19 10:39:31;;;;;;;0.60;0.10;;;15.50;1.00;;;;;;4941029;28;20450;-72
2023/10/19 10:41:59;;;;;;;0.60;0.10;;;15.50;1.00;;;;;;4953270;29;20464;-71
2023/10/19 10:44:39;;;;;;;0.60;0.10;;;15.50;1.00;;;;;;4957199;28;20571;-71
2023/10/19 10:47:09;;;;;;;0.60;0.10;;;15.50;1.00;;;;;;4957188;28;20512;-71
2023/10/19 10:49:52;;;;;;;0.60;0.10;;;15.50;1.00;;;;;;4955144;28;20473;-72
2023/10/19 10:52:31;;;;;;;0.60;0.10;;;15.50;1.00;;;;;;4964562;28;20450;-70
2023/10/19 10:55:08;;;;;;;0.60;0.10;;;15.50;1.00;;;;;;4975063;28;20495;-71
2023/10/19 10:57:36;;;;;;;0.60;0.20;;;15.60;1.00;;;;;;4975118;28;20440;-71
2023/10/19 11:00:08;;;;;;;0.60;0.10;;;15.60;1.00;;;;;;4975078;28;20453;-71
2023/10/19 11:02:40;;;;;;;0.60;0.10;;;15.60;1.00;;;;;;4959226;28;20447;-70
2023/10/19 11:05:11;;;;;;;0.60;0.10;;;15.70;1.00;;;;;;4974914;28;20479;-72
2023/10/19 11:07:40;;;;;;;1.73;1.63;;;15.70;1.00;;;;;;4974611;28;20965;-71
2023/10/19 11:10:09;;;;;;;0.60;0.10;;;15.80;1.00;;;;;;4974591;28;20452;-71
2023/10/19 11:12:38;;;;;;;0.60;0.10;;;15.80;1.00;;;;;;4974815;28;20535;-71
2023/10/19 11:15:10;;;;;;;1.10;0.83;;;15.80;1.00;;;;;;4975311;28;20479;-72
2023/10/19 11:17:43;;;;;;;0.60;0.20;;;15.80;1.00;;;;;;4953311;28;20880;-71
2023/10/19 11:20:22;;;;;;;0.60;0.10;;;15.80;1.00;;;;;;4958332;28;20456;-73
2023/10/19 11:22:51;;;;;;;1.33;0.30;;;15.80;1.00;;;;;;4956578;28;20564;-72
2023/10/19 11:25:20;;;;;;;0.60;0.10;;;15.80;1.00;;;;;;4954977;28;20940;-72
2023/10/19 11:27:48;;;;;;;0.60;0.10;;;15.80;1.00;;;;;;4964406;28;20450;-72
2023/10/19 11:30:25;;;;;;;0.60;0.10;;;15.80;1.00;;;;;;4957145;28;20445;-71
2023/10/19 11:32:56;;;;;;;1.33;0.23;;;15.90;1.00;;;;;;4956460;28;20951;-72
2023/10/19 11:35:29;;;;;;;0.60;0.10;;;15.90;1.00;;;;;;4957648;28;20452;-72
2023/10/19 11:38:00;;;;;;;0.60;0.10;;;15.90;1.00;;;;;;4955261;28;21211;-73
2023/10/19 11:40:28;;;;;;;0.60;0.10;;;15.90;1.00;;;;;;4959216;28;20461;-71
2023/10/19 11:42:57;;;;;;;0.83;0.20;;;15.80;1.00;;;;;;4949696;28;20452;-71
2023/10/19 11:45:26;;;;;;;1.00;0.50;;;15.90;1.00;;;;;;4966232;28;20479;-72
2023/10/19 11:47:56;;;;;;;0.60;0.20;;;15.90;1.00;;;;;;4953080;28;20477;-70
2023/10/19 11:50:24;;;;;;;0.60;0.10;;;15.90;1.00;;;;;;4960283;28;20475;-71
2023/10/19 11:52:53;;;;;;;0.60;0.10;;;15.90;1.00;;;;;;4965307;28;20444;-71
2023/10/19 11:55:22;;;;;;;0.60;0.13;;;15.90;1.00;;;;;;4956876;28;20456;-71
2023/10/19 11:57:50;;;;;;;0.60;0.10;;;;;;;;;;4952635;28;20986;-71
2023/10/19 12:00:21;;;;;;;0.60;0.10;;;15.90;1.00;;;;;;4960333;28;20566;-72
2023/10/19 12:02:51;;;;;;;4.43;4.23;;;16.00;1.00;;;;;;4959300;28;20449;-71
2023/10/19 12:05:20;;;;;;;0.60;0.10;;;16.00;1.00;;;;;;4955776;29;20814;-72
2023/10/19 12:07:49;;;;;;;0.60;0.10;;;;;;;;;;4951654;28;20451;-71
2023/10/19 12:10:17;;;;;;;0.60;0.10;;;16.10;1.00;;;;;;4960581;28;20449;-71
2023/10/19 12:12:45;;;;;;;2.40;0.57;;;;;;;;;;4958012;28;20444;-71
2023/10/19 12:15:27;;;;;;;0.60;0.10;;;16.10;1.00;;;;;;4953266;29;20509;-71
2023/10/19 12:17:57;;;;;;;0.60;0.10;;;16.10;1.00;;;;;;4959880;28;20481;-71
2023/10/19 12:20:26;;;;;;;0.60;0.10;;;;;;;;;;4958657;28;20450;-71
2023/10/19 12:22:54;;;;;;;1.50;1.40;;;16.20;1.00;;;;;;4963692;28;20815;-72
2023/10/19 12:25:28;;;;;;;0.60;0.10;;;16.20;1.00;;;;;;4955543;28;20952;-72
2023/10/19 12:28:03;;;;;;;0.60;0.10;;;;;;;;;;4962883;28;20496;-72
2023/10/19 12:30:36;;;;;;;0.60;0.10;;;;;;;;;;4963894;28;20484;-71
2023/10/19 12:33:11;;;;;;;0.60;0.10;;;16.40;1.00;;;;;;4955570;28;20474;-73
2023/10/19 12:35:49;;;;;;;0.60;0.10;;;16.30;1.00;;;;;;4957379;28;20453;-72
2023/10/19 12:38:17;;;;;;;0.60;0.10;;;16.40;1.00;;;;;;4960798;28;20486;-74
2023/10/19 12:40:47;;;;;;;0.60;0.10;;;16.40;1.00;;;;;;4964215;28;20464;-72
2023/10/19 12:43:15;;;;;;;0.60;0.10;;;;;;;;;;4955238;28;20474;-74
2023/10/19 12:45:50;;;;;;;0.60;0.10;;;;;;;;;;4964369;28;20490;-73
2023/10/19 12:48:19;;;;;;;0.60;0.10;;;16.50;1.00;;;;;;4962404;28;20540;-72
2023/10/19 12:50:47;;;;;;;1.27;1.17;;;16.50;1.00;;;;;;4955473;28;20445;-72
2023/10/19 12:53:16;;;;;;;0.60;0.10;;;;;;;;;;4955029;28;20469;-74
2023/10/19 12:55:44;;;;;;;0.60;0.10;;;16.50;1.00;;;;;;4965059;28;20445;-72
2023/10/19 12:58:15;;;;;;;0.60;0.10;;;;;;;;;;4955608;28;20665;-72
2023/10/19 13:00:44;;;;;;;1.40;1.30;;;;;;;;;;4958661;28;20478;-73
2023/10/19 13:03:15;;;;;;;0.60;0.30;;;16.40;1.00;;;;;;4965144;28;20528;-72
2023/10/19 13:05:45;;;;;;;3.17;2.73;;;16.40;1.00;;;;;;4957553;28;20459;-71
2023/10/19 13:08:18;;;;;;;0.60;0.10;;;16.40;1.00;;;;;;4960894;28;20840;-73
2023/10/19 13:10:50;;;;;;;0.60;0.20;;;16.40;1.00;;;;;;4956024;28;20444;-73
2023/10/19 13:13:23;;;;;;;0.60;0.10;;;16.40;1.00;;;;;;4963873;28;20485;-72
2023/10/19 13:15:53;;;;;;;0.60;0.10;;;;;;;;;;4950510;28;20480;-73
2023/10/19 13:18:25;;;;;;;0.60;0.10;;;16.30;1.00;;;;;;4958740;28;20500;-70
2023/10/19 13:20:55;;;;;;;0.60;0.10;;;16.40;1.00;;;;;;4962339;28;20443;-71
2023/10/19 13:23:23;;;;;;;0.60;0.10;;;16.30;1.00;;;;;;4953743;28;20573;-72
2023/10/19 13:25:53;;;;;;;0.60;0.10;;;16.40;1.00;;;;;;4948218;29;20495;-72
2023/10/19 13:28:23;;;;;;;0.60;0.10;;;16.40;1.00;;;;;;4954046;29;20450;-72
2023/10/19 13:30:53;;;;;;;0.60;0.10;;;16.40;1.00;;;;;;4944482;28;20480;-72
2023/10/19 13:33:21;;;;;;;0.60;0.13;;;16.40;1.00;;;;;;4945383;28;20544;-72
2023/10/19 13:35:50;;;;;;;0.60;0.10;;;16.50;1.00;;;;;;4941546;28;20451;-74
2023/10/19 13:38:20;;;;;;;0.60;0.10;;;16.50;1.00;;;;;;4941505;28;20501;-70
2023/10/19 13:40:49;;;;;;;0.60;0.20;;;16.50;1.00;;;;;;4952698;29;20455;-72
2023/10/19 13:43:19;;;;;;;0.60;0.10;;;16.50;1.00;;;;;;4945648;28;20469;-72
2023/10/19 13:45:48;;;;;;;0.60;0.10;;;16.50;1.00;;;;;;4945390;28;20505;-72
2023/10/19 13:48:17;;;;;;;0.60;0.10;;;16.50;1.00;;;;;;4953814;29;21019;-72
2023/10/19 13:50:48;;;;;;;0.60;0.10;;;16.50;1.00;;;;;;4954143;28;20477;-72
2023/10/19 13:53:16;;;;;;;0.60;0.10;;;16.50;1.00;;;;;;4961950;28;20500;-72
2023/10/19 13:55:46;;;;;;;0.80;0.30;;;16.50;1.00;;;;;;4956523;28;20484;-73
2023/10/19 13:58:14;;;;;;;0.60;0.10;;;16.50;1.00;;;;;;4959331;28;20490;-72
2023/10/19 14:00:43;;;;;;;0.60;0.10;;;16.40;1.00;;;;;;4961922;28;20904;-72
2023/10/19 14:03:13;;;;;;;3.77;3.40;;;16.40;1.00;;;;;;4954132;28;20470;-72
2023/10/19 14:05:47;;;;;;;0.60;0.10;;;16.40;1.00;;;;;;4954553;28;20476;-70
2023/10/19 14:08:16;;;;;;;0.80;0.53;;;16.40;1.00;;;;;;4956642;29;20445;-71
2023/10/19 14:10:46;;;;;;;0.60;0.10;;;16.40;1.00;;;;;;4954190;28;20464;-71
2023/10/19 14:13:15;;;;;;;0.60;0.10;;;16.40;1.00;;;;;;4957530;28;21067;-71
2023/10/19 14:15:43;;;;;;;0.70;0.20;;;16.40;1.00;;;;;;4956911;28;20497;-72
2023/10/19 14:18:12;;;;;;;0.70;0.50;;;16.30;1.00;;;;;;4956734;29;20492;-70
2023/10/19 14:20:40;;;;;;;0.60;0.10;;;16.30;1.00;;;;;;4965509;28;20452;-70
2023/10/19 14:23:10;;;;;;;0.60;0.10;;;16.30;1.00;;;;;;4957480;28;20478;-71
2023/10/19 14:25:39;;;;;;;2.93;2.73;;;16.40;1.00;;;;;;4964660;28;20467;-71
2023/10/19 14:28:09;;;;;;;0.60;0.10;;;16.40;1.00;;;;;;4954612;28;20472;-71
2023/10/19 14:30:37;;;;;;;0.60;0.10;;;16.40;1.00;;;;;;4959050;28;20548;-72
2023/10/19 14:33:10;;;;;;;0.90;0.43;;;16.40;1.00;;;;;;4966416;28;20497;-73
2023/10/19 14:35:41;;;;;;;0.60;0.10;;;16.40;1.00;;;;;;4965837;28;20518;-71
2023/10/19 14:38:13;;;;;;;0.60;0.10;;;16.30;1.00;;;;;;4954876;28;20484;-71
2023/10/19 14:40:44;;;;;;;0.60;0.10;;;16.40;1.00;;;;;;4958764;28;20457;-71
2023/10/19 14:43:13;;;;;;;0.60;0.17;;;16.40;1.00;;;;;;4959636;28;20514;-72
2023/10/19 14:45:42;;;;;;;0.60;0.10;;;16.40;1.00;;;;;;4961575;28;20449;-72
2023/10/19 14:48:11;;;;;;;0.60;0.10;;;16.30;1.00;;;;;;4957173;29;20482;-72
2023/10/19 14:50:39;;;;;;;0.60;0.10;;;16.40;1.00;;;;;;4957207;28;20468;-71
2023/10/19 14:53:07;;;;;;;0.60;0.10;;;16.40;1.00;;;;;;4952087;28;20489;-71
2023/10/19 14:55:36;;;;;;;0.60;0.10;;;16.30;1.00;;;;;;4951296;28;20469;-71
2023/10/19 14:58:06;;;;;;;0.60;0.10;;;16.40;1.00;;;;;;4956048;29;20491;-72
2023/10/19 15:00:37;;;;;;;0.60;0.10;;;16.40;1.00;;;;;;4949542;28;20502;-73
2023/10/19 15:03:08;;;;;;;1.50;1.40;;;16.40;1.00;;;;;;4955172;28;20981;-72
2023/10/19 15:05:37;;;;;;;0.60;0.10;;;16.40;1.00;;;;;;4957107;28;21163;-74
2023/10/19 15:08:07;;;;;;;0.60;0.10;;;16.40;1.00;;;;;;4961935;28;20468;-71
2023/10/19 15:10:40;;;;;;;0.60;0.10;;;16.50;1.00;;;;;;4948952;28;20480;-72
2023/10/19 15:13:08;;;;;;;0.60;0.10;;;16.50;1.00;;;;;;4960944;28;20906;-72
2023/10/19 15:15:37;;;;;;;0.60;0.13;;;16.40;1.00;;;;;;4956800;28;20461;-70
2023/10/19 15:18:06;;;;;;;0.60;0.10;;;;;;;;;;4954474;28;20489;-71
2023/10/19 15:20:35;;;;;;;0.60;0.30;;;16.50;1.00;;;;;;4950602;28;20560;-73
2023/10/19 15:23:04;;;;;;;0.80;0.30;;;16.40;1.00;;;;;;4937381;28;20450;-72
2023/10/19 15:25:32;;;;;;;0.60;0.10;;;;;;;;;;4959816;28;20869;-71
2023/10/19 15:28:00;;;;;;;0.60;0.20;;;16.40;1.00;;;;;;4956211;29;20575;-71
2023/10/19 15:30:28;;;;;;;0.60;0.40;;;16.40;1.00;;;;;;4967344;28;20503;-71
2023/10/19 15:32:57;;;;;;;1.17;0.20;;;16.40;1.00;;;;;;4946941;28;20540;-72
2023/10/19 15:35:27;;;;;;;0.60;0.30;;;16.40;1.00;;;;;;4962612;28;20467;-73
2023/10/19 15:37:55;;;;;;;0.70;0.40;;;16.40;1.00;;;;;;4963059;28;20446;-73
2023/10/19 15:40:25;;;;;;;0.60;0.10;;;16.40;1.00;;;;;;4970187;28;20807;-72
2023/10/19 15:42:54;;;;;;;0.60;0.10;;;16.40;1.00;;;;;;4957718;28;20522;-71
2023/10/19 15:45:22;;;;;;;0.60;0.10;;;16.40;1.00;;;;;;4967752;28;20542;-71
2023/10/19 15:47:53;;;;;;;0.60;0.10;;;16.50;1.00;;;;;;4964603;28;20456;-72
2023/10/19 15:50:23;;;;;;;0.60;0.10;;;16.50;1.00;;;;;;4961981;28;20474;-73
2023/10/19 15:52:52;;;;;;;1.30;0.30;;;;;;;;;;4955859;28;20474;-72
2023/10/19 15:55:21;;;;;;;0.60;0.10;;;16.60;1.00;;;;;;4955766;29;20477;-73
2023/10/19 15:57:51;;;;;;;8.63;1.50;;;16.60;1.00;;;;;;4948032;29;20484;-73
2023/10/19 16:00:19;;;;;;;1.20;1.10;;;16.60;1.00;;;;;;4968558;28;20446;-70
2023/10/19 16:02:49;;;;;;;0.60;0.10;;;16.60;1.00;;;;;;4956898;28;20541;-71
2023/10/19 16:05:19;;;;;;;1.00;0.47;;;;;;;;;;4961003;28;20452;-70
2023/10/19 16:07:49;;;;;;;1.37;1.17;;;16.50;1.00;;;;;;4966711;28;20449;-74
2023/10/19 16:10:19;;;;;;;2.50;1.10;;;16.50;1.00;;;;;;4960939;28;20457;-72
2023/10/19 16:12:47;;;;;;;0.60;0.20;;;16.40;1.00;;;;;;4965048;28;20450;-71
2023/10/19 16:15:16;;;;;;;0.60;0.10;;;;;;;;;;4968170;28;20461;-70
2023/10/19 16:17:45;;;;;;;0.70;0.67;;;16.40;1.00;;;;;;4952345;28;20458;-70
2023/10/19 16:20:15;;;;;;;1.00;0.50;;;;;;;;;;4953573;29;20504;-71
2023/10/19 16:22:43;;;;;;;1.40;1.30;;;;;;;;;;4940121;29;21479;-72
2023/10/19 16:25:13;;;;;;;0.60;0.10;;;;;;;;;;4949557;28;20455;-72
2023/10/19 16:27:41;;;;;;;0.60;0.10;;;16.40;1.00;;;;;;4954485;28;20958;-71
2023/10/19 16:30:12;;;;;;;0.60;0.10;;;16.50;1.00;;;;;;4952602;28;20557;-71
2023/10/19 16:32:41;;;;;;;2.60;0.97;;;16.50;1.00;;;;;;4962210;28;20961;-70
2023/10/19 16:35:10;;;;;;;0.60;0.13;;;16.50;1.00;;;;;;4960522;28;20558;-71
2023/10/19 16:37:38;;;;;;;0.80;0.77;;;;;;;;;;4963153;28;20471;-71
2023/10/19 16:40:07;;;;;;;0.60;0.10;;;16.40;1.00;;;;;;4960456;28;20489;-72
2023/10/19 16:42:37;;;;;;;0.60;0.10;;;16.40;1.00;;;;;;4970169;28;20544;-70
2023/10/19 16:45:06;;;;;;;0.60;0.10;;;16.40;1.00;;;;;;4957478;28;20530;-71
2023/10/19 16:47:34;;;;;;;0.60;0.10;;;16.40;1.00;;;;;;4965607;28;20442;-70
2023/10/19 16:50:07;;;;;;;0.60;0.20;;;16.40;1.00;;;;;;4947281;29;20450;-71
2023/10/19 16:52:35;;;;;;;0.60;0.10;;;;;;;;;;4969279;28;20882;-70
2023/10/19 16:55:05;;;;;;;0.60;0.10;;;16.40;1.00;;;;;;4954365;28;20504;-71
2023/10/19 16:57:34;;;;;;;0.60;0.10;;;16.30;1.00;;;;;;4953500;29;20446;-71
2023/10/19 17:00:03;;;;;;;0.60;0.10;;;16.40;1.00;;;;;;4957475;28;20540;-70
2023/10/19 17:02:32;;;;;;;0.60;0.10;;;;;;;;;;4962206;28;20469;-70
2023/10/19 17:05:01;;;;;;;0.60;0.10;;;;;;;;;;4969583;28;20543;-71
2023/10/19 17:07:29;;;;;;;0.60;0.10;;;16.40;1.00;;;;;;4960486;28;20529;-73
2023/10/19 17:09:57;;;;;;;0.60;0.20;;;16.40;1.00;;;;;;4964949;28;20543;-73
2023/10/19 17:12:25;;;;;;;0.60;0.10;;;16.40;1.00;;;;;;4958168;28;20456;-73
2023/10/19 17:14:53;;;;;;;0.60;0.10;;;16.40;1.00;;;;;;4961792;28;20494;-72
2023/10/19 17:17:22;;;;;;;0.60;0.10;;;16.30;1.00;;;;;;4953794;29;20508;-72
2023/10/19 17:19:50;;;;;;;5.03;4.63;;;16.30;1.00;;;;;;4946730;29;20486;-73
2023/10/19 17:22:19;;;;;;;0.60;0.10;;;;;;;;;;4966789;28;20449;-71
2023/10/19 17:24:48;;;;;;;0.60;0.10;;;16.30;1.00;;;;;;4956497;28;20477;-72